Time;durP1;ratioP1;P1;durP2;ratioP2;P2;SDS_P1;SDS_P2;PMS_P1;PMS_P2;Temp;Humidity;BMP_temperature;BMP_pressure;BME280_temperature;BME280_humidity;BME280_pressure;Samples;Min_cycle;Max_cycle;Signal;HPM_P1;HPM_P2
2022/12/22 03:28:07;;;;;;;40.08;25.50;;;9.30;88.90;;;;;;5097259;28;20039;-72
2022/12/22 03:30:33;;;;;;;33.78;24.15;;;9.30;88.90;;;;;;5111863;28;20055;-72
2022/12/22 03:33:00;;;;;;;37.08;25.50;;;9.30;88.90;;;;;;5111822;28;20196;-72
2022/12/22 03:35:25;;;;;;;37.53;26.13;;;9.30;88.90;;;;;;5095082;28;20507;-73
2022/12/22 03:37:51;;;;;;;37.67;25.05;;;9.30;88.80;;;;;;5094977;28;20079;-72
2022/12/22 03:40:17;;;;;;;38.13;26.55;;;9.30;88.80;;;;;;5094495;28;20050;-72
2022/12/22 03:48:11;;;;;;;41.88;28.20;;;9.30;88.80;;;;;;5111534;28;20058;-72
2022/12/22 03:50:37;;;;;;;38.45;26.40;;;9.30;88.70;;;;;;5111912;28;20039;-72
2022/12/22 03:53:03;;;;;;;39.55;27.10;;;9.30;88.80;;;;;;5097899;28;20044;-72
2022/12/22 03:55:29;;;;;;;36.78;25.35;;;9.30;88.80;;;;;;5098131;28;20425;-72
2022/12/22 03:57:54;;;;;;;37.58;25.25;;;9.30;88.70;;;;;;5115488;28;20047;-72
2022/12/22 04:00:20;;;;;;;37.45;25.77;;;9.30;88.70;;;;;;5116927;28;20039;-72
2022/12/22 04:02:46;;;;;;;36.92;25.40;;;9.30;88.70;;;;;;5115286;28;20046;-73
2022/12/22 04:05:12;;;;;;;36.15;25.17;;;9.30;88.70;;;;;;5115141;28;20046;-72
2022/12/22 04:07:37;;;;;;;40.42;27.08;;;9.30;88.70;;;;;;5115768;28;20065;-73
2022/12/22 04:12:53;;;;;;;37.42;24.70;;;9.30;88.70;;;;;;5100771;28;20054;-73
2022/12/22 04:15:23;;;;;;;39.85;26.13;;;9.30;88.80;;;;;;5114940;28;20398;-72
2022/12/22 04:17:49;;;;;;;37.28;26.33;;;9.30;88.80;;;;;;5115094;28;20534;-72
2022/12/22 04:20:15;;;;;;;38.60;25.48;;;9.40;88.80;;;;;;5098371;28;20075;-72
2022/12/22 04:22:40;;;;;;;39.72;24.40;;;9.30;88.70;;;;;;5115187;28;20051;-73
2022/12/22 04:25:07;;;;;;;36.30;25.65;;;9.30;88.70;;;;;;5114904;28;20036;-73
2022/12/22 04:27:32;;;;;;;39.05;25.13;;;9.30;88.70;;;;;;5098265;28;20552;-72
2022/12/22 04:29:58;;;;;;;38.42;25.88;;;9.30;88.60;;;;;;5114890;28;20131;-72
2022/12/22 04:32:24;;;;;;;40.92;26.23;;;9.30;88.70;;;;;;5114737;28;20415;-72
2022/12/22 04:34:49;;;;;;;36.08;23.80;;;9.30;88.60;;;;;;5114724;28;20043;-72
2022/12/22 04:37:15;;;;;;;35.97;25.48;;;9.30;88.60;;;;;;5114647;28;20031;-72
2022/12/22 04:39:41;;;;;;;38.70;25.52;;;9.30;88.60;;;;;;5114749;28;20099;-72
2022/12/22 04:42:06;;;;;;;38.50;25.67;;;9.30;88.60;;;;;;5114985;28;20035;-72
2022/12/22 04:44:32;;;;;;;38.08;25.65;;;9.30;88.60;;;;;;5114412;28;20478;-72
2022/12/22 04:46:58;;;;;;;39.03;26.15;;;9.30;88.60;;;;;;5097654;28;20187;-72
2022/12/22 04:49:23;;;;;;;44.25;26.98;;;9.40;88.70;;;;;;5114701;28;20036;-72
2022/12/22 04:51:49;;;;;;;44.38;28.38;;;9.30;88.60;;;;;;5114992;28;20069;-72
2022/12/22 04:54:15;;;;;;;41.97;26.98;;;9.30;88.60;;;;;;5114405;28;20430;-73
2022/12/22 04:56:40;;;;;;;35.95;24.77;;;9.30;88.60;;;;;;5115177;28;20039;-72
2022/12/22 04:59:06;;;;;;;43.38;27.83;;;9.30;88.60;;;;;;5115393;28;20031;-72
2022/12/22 05:01:32;;;;;;;42.75;26.55;;;9.30;88.60;;;;;;5114874;28;20077;-72
2022/12/22 05:03:57;;;;;;;45.40;26.75;;;9.30;88.60;;;;;;5113154;28;20035;-72
2022/12/22 05:06:23;;;;;;;45.40;28.02;;;9.30;88.50;;;;;;5114407;28;20535;-72
2022/12/22 05:08:48;;;;;;;51.50;29.45;;;9.30;88.60;;;;;;5097168;28;20445;-72
2022/12/22 05:11:14;;;;;;;56.85;30.42;;;9.30;88.50;;;;;;5114392;28;20039;-72
2022/12/22 05:13:40;;;;;;;53.67;28.70;;;9.30;88.50;;;;;;5097005;28;20043;-72
2022/12/22 05:16:12;;;;;;;53.25;29.05;;;9.30;88.50;;;;;;5114279;28;20044;-72
2022/12/22 05:18:39;;;;;;;56.13;30.30;;;9.30;88.60;;;;;;5113845;28;20058;-72
2022/12/22 05:21:07;;;;;;;59.20;31.00;;;9.30;88.50;;;;;;5097014;28;20043;-74
2022/12/22 05:23:33;;;;;;;56.05;30.13;;;9.30;88.50;;;;;;5096780;28;20055;-74
2022/12/22 05:25:58;;;;;;;53.55;28.83;;;9.30;88.50;;;;;;5113614;28;20302;-73
2022/12/22 05:28:24;;;;;;;53.03;28.05;;;9.30;88.50;;;;;;5096498;28;20040;-73
2022/12/22 05:30:49;;;;;;;48.90;28.67;;;9.30;88.50;;;;;;5114264;28;20043;-73
2022/12/22 05:33:15;;;;;;;52.97;28.83;;;9.30;88.50;;;;;;5113671;28;20109;-73
2022/12/22 05:35:41;;;;;;;53.58;29.17;;;9.30;88.50;;;;;;5113319;28;20093;-73
2022/12/22 05:38:06;;;;;;;52.42;28.70;;;9.30;88.50;;;;;;5113429;28;20035;-73
2022/12/22 05:40:32;;;;;;;55.97;29.08;;;9.30;88.50;;;;;;5113644;28;20047;-72
2022/12/22 05:42:58;;;;;;;63.42;31.38;;;9.30;88.50;;;;;;5113618;28;20043;-73
2022/12/22 05:45:23;;;;;;;65.72;29.23;;;9.30;88.50;;;;;;5113581;28;20114;-73
2022/12/22 05:47:51;;;;;;;71.15;34.00;;;9.30;88.40;;;;;;5113615;28;20040;-73
2022/12/22 05:50:20;;;;;;;62.95;30.80;;;9.30;88.40;;;;;;5096438;28;20043;-72
2022/12/22 05:52:46;;;;;;;68.82;29.67;;;9.30;88.40;;;;;;5113335;28;20047;-72
2022/12/22 05:55:13;;;;;;;60.83;29.98;;;9.30;88.20;;;;;;5113310;28;20050;-73
2022/12/22 05:57:39;;;;;;;61.42;29.90;;;9.30;88.20;;;;;;5096777;28;20050;-73
2022/12/22 06:00:07;;;;;;;59.30;28.33;;;9.20;88.10;;;;;;5113099;28;20055;-72
2022/12/22 06:02:33;;;;;;;51.20;26.83;;;9.30;88.20;;;;;;5113281;28;20048;-73
2022/12/22 06:04:58;;;;;;;52.40;26.60;;;9.20;88.00;;;;;;5112910;28;20039;-74
2022/12/22 06:07:24;;;;;;;50.42;26.67;;;9.20;88.00;;;;;;5113291;28;20036;-74
2022/12/22 06:09:50;;;;;;;49.65;25.33;;;9.20;88.00;;;;;;5113228;28;20048;-72
2022/12/22 06:12:15;;;;;;;49.47;24.95;;;9.20;88.00;;;;;;5112390;28;20028;-72
2022/12/22 06:14:41;;;;;;;47.03;25.95;;;9.20;87.90;;;;;;5112731;28;20047;-72
2022/12/22 06:17:07;;;;;;;44.83;24.17;;;9.20;87.90;;;;;;5112149;28;20063;-73
2022/12/22 06:19:32;;;;;;;44.72;23.50;;;9.20;87.90;;;;;;5112750;28;20035;-72
2022/12/22 06:21:58;;;;;;;41.53;22.95;;;9.20;87.90;;;;;;5095584;28;20031;-73
2022/12/22 06:24:24;;;;;;;40.45;23.45;;;9.20;87.80;;;;;;5112813;28;20079;-74
2022/12/22 06:26:50;;;;;;;40.92;23.02;;;9.10;87.70;;;;;;5095689;28;20032;-74
2022/12/22 06:29:15;;;;;;;39.47;23.50;;;9.10;87.60;;;;;;5114156;28;20490;-74
2022/12/22 06:31:41;;;;;;;44.63;22.88;;;9.10;87.50;;;;;;5112808;28;20097;-75
2022/12/22 06:34:09;;;;;;;39.30;22.90;;;9.10;87.40;;;;;;5111939;28;20081;-72
2022/12/22 06:36:35;;;;;;;37.25;22.10;;;9.10;87.30;;;;;;5112542;28;20031;-73
2022/12/22 06:39:01;;;;;;;35.20;21.33;;;9.00;87.10;;;;;;5112314;28;20131;-72
2022/12/22 06:44:11;;;;;;;35.47;21.27;;;9.00;86.90;;;;;;5112199;28;20092;-72
2022/12/22 06:46:36;;;;;;;36.67;20.75;;;9.00;86.90;;;;;;5112717;28;20036;-72
2022/12/22 06:49:02;;;;;;;34.63;20.85;;;9.00;86.80;;;;;;5112785;28;20126;-73
2022/12/22 06:51:28;;;;;;;32.40;19.52;;;8.90;86.70;;;;;;5112653;28;20039;-72
2022/12/22 06:53:53;;;;;;;33.15;19.15;;;8.90;86.60;;;;;;5112417;28;20479;-72
2022/12/22 06:56:19;;;;;;;33.22;20.13;;;8.90;86.50;;;;;;5112335;28;20047;-73
2022/12/22 06:58:45;;;;;;;31.35;18.85;;;8.80;86.40;;;;;;5112667;28;20039;-72
2022/12/22 07:01:10;;;;;;;33.47;19.98;;;8.80;86.30;;;;;;5111941;28;20501;-72
2022/12/22 07:03:36;;;;;;;31.55;19.25;;;8.80;86.20;;;;;;5112152;28;20126;-73
2022/12/22 07:06:02;;;;;;;30.58;17.50;;;8.70;86.00;;;;;;5112080;28;20118;-72
2022/12/22 07:08:27;;;;;;;29.15;18.27;;;8.70;85.80;;;;;;5112240;28;20032;-72
2022/12/22 07:10:59;;;;;;;28.85;17.27;;;8.70;85.80;;;;;;5111613;28;20036;-72
2022/12/22 07:13:31;;;;;;;29.50;18.67;;;8.70;85.70;;;;;;5111596;28;20071;-72
2022/12/22 07:15:57;;;;;;;31.17;18.30;;;8.70;85.70;;;;;;5111670;28;20043;-73
2022/12/22 07:18:23;;;;;;;30.10;17.95;;;8.60;85.50;;;;;;5094210;28;20043;-73
2022/12/22 07:20:48;;;;;;;30.48;18.48;;;8.60;85.40;;;;;;5094772;28;20063;-73
2022/12/22 07:23:14;;;;;;;31.92;17.27;;;8.50;85.30;;;;;;5095039;28;20080;-73
2022/12/22 07:25:40;;;;;;;31.15;17.23;;;8.50;85.30;;;;;;5112011;28;20058;-73
2022/12/22 07:28:06;;;;;;;28.77;17.65;;;8.50;85.30;;;;;;5117877;28;20063;-72
2022/12/22 07:30:34;;;;;;;35.70;17.83;;;8.50;85.40;;;;;;5118809;28;20047;-72
2022/12/22 07:33:00;;;;;;;29.48;17.27;;;8.40;85.40;;;;;;5118230;28;20514;-72
2022/12/22 07:35:25;;;;;;;25.00;14.13;;;8.40;85.30;;;;;;5118784;28;20047;-72
2022/12/22 07:37:51;;;;;;;26.27;14.82;;;8.40;85.30;;;;;;5118770;28;20050;-72
2022/12/22 07:40:17;;;;;;;26.63;13.68;;;8.40;85.40;;;;;;5101671;28;20051;-72
2022/12/22 07:42:45;;;;;;;24.40;15.07;;;8.40;85.50;;;;;;5101621;28;20048;-72
2022/12/22 07:45:13;;;;;;;27.23;14.35;;;8.30;85.50;;;;;;5118646;28;20040;-72
2022/12/22 07:47:39;;;;;;;23.17;14.10;;;8.30;85.50;;;;;;5118686;28;20032;-72
2022/12/22 07:50:26;;;;;;;23.42;14.27;;;8.30;85.50;;;;;;5118785;28;20425;-72
2022/12/22 07:52:53;;;;;;;22.88;14.45;;;8.30;85.60;;;;;;5101531;28;20126;-72
2022/12/22 07:55:19;;;;;;;24.83;12.70;;;8.30;86.00;;;;;;5118641;28;20044;-73
2022/12/22 07:57:45;;;;;;;21.70;13.05;;;8.30;85.60;;;;;;5118555;28;20510;-72
2022/12/22 08:00:12;;;;;;;23.27;14.50;;;8.20;85.60;;;;;;5118449;28;20040;-72
2022/12/22 08:02:37;;;;;;;21.27;12.32;;;8.20;85.60;;;;;;5118498;28;20475;-72
2022/12/22 08:05:04;;;;;;;21.50;13.13;;;8.20;85.70;;;;;;5118340;28;20050;-72
2022/12/22 08:07:31;;;;;;;22.42;12.80;;;8.20;85.70;;;;;;5101514;28;20051;-73
2022/12/22 08:09:57;;;;;;;20.27;12.18;;;8.20;85.80;;;;;;5118722;28;20048;-72
2022/12/22 08:12:23;;;;;;;20.63;12.57;;;8.20;85.80;;;;;;5118552;28;20042;-73
2022/12/22 08:14:49;;;;;;;20.73;11.77;;;8.20;85.80;;;;;;5118717;28;20032;-73
2022/12/22 08:17:14;;;;;;;18.90;11.60;;;8.20;85.80;;;;;;5101200;28;20494;-73
2022/12/22 08:19:40;;;;;;;19.75;12.23;;;8.20;85.80;;;;;;5118436;28;20122;-73
2022/12/22 08:22:06;;;;;;;17.42;11.13;;;8.20;85.90;;;;;;5080948;28;20040;-72
2022/12/22 08:24:31;;;;;;;17.92;11.30;;;8.20;85.90;;;;;;5097880;28;20048;-72
2022/12/22 08:27:02;;;;;;;17.98;10.50;;;8.20;85.90;;;;;;5098079;28;20120;-67
2022/12/22 08:29:39;;;;;;;14.25;10.00;;;8.20;85.90;;;;;;5115169;28;20395;-67
2022/12/22 08:32:05;;;;;;;15.93;9.98;;;8.20;85.90;;;;;;5097964;28;20388;-73
2022/12/22 08:34:31;;;;;;;15.43;9.55;;;8.10;85.80;;;;;;5112780;28;20118;-72
2022/12/22 08:36:59;;;;;;;17.23;10.07;;;8.20;85.80;;;;;;5118145;28;20123;-73
2022/12/22 08:39:27;;;;;;;16.38;9.60;;;8.10;85.80;;;;;;5127736;27;20072;-73
2022/12/22 08:41:53;;;;;;;15.60;10.13;;;8.20;85.80;;;;;;5094662;28;20043;-73
2022/12/22 08:44:29;;;;;;;24.85;10.05;;;8.20;85.80;;;;;;5077727;28;20036;-73
2022/12/22 08:46:57;;;;;;;15.23;10.05;;;8.20;85.80;;;;;;5095957;28;20043;-73
2022/12/22 08:49:24;;;;;;;16.17;10.50;;;8.20;85.80;;;;;;5094625;28;20098;-67
2022/12/22 08:51:50;;;;;;;15.30;9.38;;;8.10;85.70;;;;;;5114433;28;20039;-67
2022/12/22 08:54:16;;;;;;;14.30;9.63;;;8.10;85.70;;;;;;5114466;28;20051;-67
2022/12/22 08:56:43;;;;;;;15.98;9.68;;;8.20;85.80;;;;;;5114986;28;20043;-67
2022/12/22 08:59:09;;;;;;;16.40;9.43;;;8.20;85.80;;;;;;5114616;28;20058;-68
2022/12/22 09:01:37;;;;;;;15.45;10.23;;;8.10;85.70;;;;;;5114759;28;20082;-67
2022/12/22 09:04:04;;;;;;;14.95;9.40;;;8.20;85.80;;;;;;5114219;28;20043;-67
2022/12/22 09:06:30;;;;;;;20.80;10.13;;;8.20;85.80;;;;;;5097479;28;20036;-73
2022/12/22 09:08:58;;;;;;;17.15;10.00;;;8.10;85.70;;;;;;5114584;28;20084;-73
2022/12/22 09:11:24;;;;;;;15.60;10.13;;;8.20;85.80;;;;;;5097028;28;20036;-73
2022/12/22 09:13:52;;;;;;;15.95;9.38;;;8.20;85.70;;;;;;5114338;28;20088;-73
2022/12/22 09:16:19;;;;;;;17.17;10.07;;;8.10;85.70;;;;;;5114255;28;20088;-74
2022/12/22 09:18:44;;;;;;;17.83;9.95;;;8.20;85.70;;;;;;5097250;28;20035;-73
2022/12/22 09:21:10;;;;;;;16.05;9.35;;;8.20;85.80;;;;;;5114365;28;20042;-73
2022/12/22 09:23:36;;;;;;;19.23;9.65;;;8.20;85.80;;;;;;5114024;28;20434;-73
2022/12/22 09:26:16;;;;;;;17.05;10.43;;;8.20;85.80;;;;;;5114243;28;20051;-73
2022/12/22 09:28:42;;;;;;;18.45;8.48;;;8.20;85.80;;;;;;5110759;28;20486;-73
2022/12/22 09:31:09;;;;;;;15.80;8.52;;;8.20;85.80;;;;;;5115892;27;20141;-73
2022/12/22 09:33:35;;;;;;;16.00;8.82;;;8.20;85.80;;;;;;5117431;27;20046;-74
2022/12/22 09:36:06;;;;;;;15.07;8.85;;;8.20;85.80;;;;;;5083785;27;20053;-73
2022/12/22 09:38:32;;;;;;;15.95;8.32;;;8.20;85.80;;;;;;5117088;27;20103;-73
2022/12/22 09:40:58;;;;;;;15.50;8.82;;;8.20;85.80;;;;;;5100236;27;20039;-73
2022/12/22 09:43:29;;;;;;;15.02;9.10;;;8.20;85.80;;;;;;5099801;27;20049;-73
2022/12/22 09:45:57;;;;;;;14.27;8.82;;;8.20;85.80;;;;;;5117058;27;20077;-73
2022/12/22 09:48:32;;;;;;;17.92;9.60;;;8.10;85.70;;;;;;5100106;27;20035;-73
2022/12/22 09:50:58;;;;;;;17.48;9.07;;;8.20;85.90;;;;;;5116858;27;20035;-73
2022/12/22 09:53:24;;;;;;;16.33;8.73;;;8.20;85.90;;;;;;5100009;27;20057;-73
2022/12/22 09:55:50;;;;;;;16.77;8.48;;;8.20;85.80;;;;;;5099749;27;20050;-73
2022/12/22 09:58:26;;;;;;;14.52;7.80;;;8.20;85.90;;;;;;5117063;27;20118;-73
2022/12/22 10:01:17;;;;;;;17.00;9.15;;;8.20;86.00;;;;;;5116441;27;20122;-73
2022/12/22 10:03:51;;;;;;;16.08;9.23;;;8.30;86.00;;;;;;5116480;27;20050;-73
2022/12/22 10:06:50;;;;;;;18.10;9.38;;;8.20;86.00;;;;;;5116733;27;20114;-73
2022/12/22 10:09:22;;;;;;;15.80;8.25;;;8.20;86.00;;;;;;5134912;27;20550;-73
2022/12/22 10:12:03;;;;;;;17.13;9.48;;;8.30;86.20;;;;;;5116594;27;20038;-73
2022/12/22 10:14:36;;;;;;;16.58;9.07;;;8.30;86.20;;;;;;5116692;27;20047;-73
2022/12/22 10:17:25;;;;;;;15.27;8.23;;;8.30;86.20;;;;;;5099107;27;20043;-73
2022/12/22 10:19:53;;;;;;;14.18;8.27;;;8.30;86.20;;;;;;5115919;27;20057;-73
2022/12/22 10:22:29;;;;;;;14.77;8.93;;;8.30;86.20;;;;;;5113701;27;20042;-73
2022/12/22 10:24:56;;;;;;;16.38;8.40;;;8.40;86.20;;;;;;5116007;27;20394;-73
2022/12/22 10:27:24;;;;;;;14.65;7.82;;;8.30;86.10;;;;;;5115895;27;20031;-74
2022/12/22 10:29:50;;;;;;;16.25;9.30;;;8.40;86.10;;;;;;5115672;27;20031;-73
2022/12/22 10:32:19;;;;;;;15.45;7.57;;;8.40;86.10;;;;;;5115540;27;20135;-73
2022/12/22 10:34:59;;;;;;;14.52;7.78;;;8.40;86.10;;;;;;5098947;27;20389;-74
2022/12/22 10:37:36;;;;;;;12.55;7.07;;;8.40;86.10;;;;;;5114546;27;20035;-73
2022/12/22 10:40:17;;;;;;;13.18;8.05;;;8.40;86.10;;;;;;5114001;27;20049;-73
2022/12/22 10:42:49;;;;;;;15.52;7.50;;;8.40;86.10;;;;;;5114307;27;20039;-73
2022/12/22 10:45:21;;;;;;;13.30;8.07;;;8.50;86.10;;;;;;5095650;27;20035;-73
2022/12/22 10:47:50;;;;;;;12.07;7.05;;;8.50;86.10;;;;;;5098493;27;20160;-73
2022/12/22 10:50:16;;;;;;;14.07;7.43;;;8.50;86.00;;;;;;5112825;27;20039;-73
2022/12/22 10:52:50;;;;;;;10.13;6.45;;;8.50;86.00;;;;;;5114683;27;20039;-74
2022/12/22 10:55:19;;;;;;;12.27;7.45;;;8.50;86.10;;;;;;5112627;27;20041;-73
2022/12/22 10:57:45;;;;;;;13.35;7.40;;;8.60;86.00;;;;;;5114646;28;20096;-73
2022/12/22 11:00:20;;;;;;;10.02;6.80;;;8.60;86.00;;;;;;5114549;27;20038;-73
2022/12/22 11:02:51;;;;;;;10.55;6.53;;;8.60;86.00;;;;;;5113135;27;20047;-73
2022/12/22 11:05:17;;;;;;;11.82;7.30;;;8.60;85.90;;;;;;5112371;27;20489;-73
2022/12/22 11:07:46;;;;;;;12.25;6.50;;;8.60;85.80;;;;;;5097917;27;20039;-73
2022/12/22 11:10:15;;;;;;;11.15;7.05;;;8.60;85.70;;;;;;5114758;27;20031;-73
2022/12/22 11:13:18;;;;;;;11.60;6.90;;;8.70;85.80;;;;;;5115494;27;20043;-73
2022/12/22 11:15:52;;;;;;;10.63;7.00;;;8.60;85.50;;;;;;5108197;28;20042;-73
2022/12/22 11:18:27;;;;;;;;;;;8.70;85.60;;;;;;5096236;28;20069;-73
2022/12/22 11:20:57;;;;;;;;;;;8.60;85.30;;;;;;5115929;27;19951;-73
2022/12/22 11:23:32;;;;;;;10.60;6.13;;;8.60;85.50;;;;;;5114633;28;19923;-72
2022/12/22 11:26:01;;;;;;;;;;;8.60;85.80;;;;;;5113327;28;20117;-73
2022/12/22 11:29:00;;;;;;;12.50;6.35;;;8.60;85.50;;;;;;5115144;28;19915;-73
2022/12/22 11:32:11;;;;;;;11.52;6.38;;;8.70;85.90;;;;;;5114001;28;20047;-73
2022/12/22 11:35:01;;;;;;;11.52;6.55;;;8.70;85.80;;;;;;5020458;28;20584;-73
2022/12/22 11:38:02;;;;;;;11.95;6.28;;;8.70;85.80;;;;;;5114012;28;20118;-73
2022/12/22 11:40:42;;;;;;;15.77;7.47;;;8.70;85.60;;;;;;5049213;28;20036;-73
2022/12/22 11:43:40;;;;;;;13.00;5.70;;;8.70;85.80;;;;;;5101506;28;20118;-72
2022/12/22 11:46:24;;;;;;;11.07;6.30;;;8.70;85.80;;;;;;5114092;28;20457;-73
2022/12/22 11:49:14;;;;;;;11.23;6.10;;;8.70;85.80;;;;;;5111241;28;20051;-73
2022/12/22 11:51:58;;;;;;;13.57;7.20;;;8.70;85.80;;;;;;5112792;28;20046;-73
2022/12/22 11:54:24;;;;;;;13.70;6.85;;;8.70;85.80;;;;;;5108081;28;20047;-73
2022/12/22 11:57:13;;;;;;;10.52;6.78;;;8.80;85.90;;;;;;5132709;28;20035;-73
2022/12/22 12:00:02;;;;;;;13.20;6.97;;;8.80;86.00;;;;;;5114806;28;20096;-73
2022/12/22 12:02:52;;;;;;;15.27;6.60;;;8.80;86.00;;;;;;5113777;28;20039;-73
2022/12/22 12:05:41;;;;;;;17.52;8.05;;;8.80;86.00;;;;;;5112841;28;20116;-73
2022/12/22 12:08:28;;;;;;;13.80;6.93;;;8.80;86.10;;;;;;5114588;28;20054;-73
2022/12/22 12:11:41;;;;;;;12.48;6.93;;;8.80;86.20;;;;;;5077787;28;20035;-72
2022/12/22 12:14:12;;;;;;;15.88;6.53;;;8.80;86.00;;;;;;4989573;28;20046;-73
2022/12/22 12:16:59;;;;;;;15.00;6.60;;;8.80;86.20;;;;;;4980427;28;20085;-73
2022/12/22 12:19:33;;;;;;;17.50;7.28;;;8.90;86.30;;;;;;5083295;27;20175;-73
2022/12/22 12:22:03;;;;;;;13.25;7.13;;;8.90;86.30;;;;;;5101894;27;20130;-73
2022/12/22 12:24:41;;;;;;;15.40;7.43;;;8.90;86.30;;;;;;5100981;27;20050;-73
2022/12/22 12:27:25;;;;;;;20.38;7.38;;;8.90;86.40;;;;;;5118463;27;20055;-73
2022/12/22 12:30:02;;;;;;;13.80;7.05;;;8.90;86.40;;;;;;5118815;27;20066;-73
2022/12/22 12:32:37;;;;;;;15.27;6.95;;;8.90;86.40;;;;;;5117970;27;20096;-73
2022/12/22 12:35:26;;;;;;;17.08;7.00;;;9.00;86.60;;;;;;5118737;27;20098;-74
2022/12/22 12:38:01;;;;;;;17.30;7.15;;;9.00;86.60;;;;;;5091633;27;20035;-74
2022/12/22 12:41:06;;;;;;;13.07;6.35;;;9.00;86.60;;;;;;5118247;27;20031;-74
2022/12/22 12:43:32;;;;;;;17.05;5.43;;;9.00;86.60;;;;;;5000243;28;20597;-73
2022/12/22 12:45:58;;;;;;;14.15;5.93;;;9.00;86.60;;;;;;5081059;27;20454;-74
2022/12/22 12:48:35;;;;;;;11.02;4.90;;;9.10;86.60;;;;;;5118114;27;20065;-74
2022/12/22 12:51:01;;;;;;;14.98;5.20;;;9.10;86.70;;;;;;5101284;27;20461;-73
2022/12/22 12:53:28;;;;;;;15.63;6.35;;;9.10;86.60;;;;;;5118554;27;20130;-73
2022/12/22 12:55:58;;;;;;;16.73;4.38;;;9.10;86.60;;;;;;5101382;27;20039;-73
2022/12/22 12:58:36;;;;;;;13.65;5.40;;;9.20;86.60;;;;;;5117653;27;20031;-73
2022/12/22 13:01:04;;;;;;;12.40;4.85;;;9.20;86.50;;;;;;5117771;27;20035;-73
2022/12/22 13:03:29;;;;;;;11.73;4.57;;;9.20;86.40;;;;;;5117885;27;20058;-73
2022/12/22 13:06:00;;;;;;;13.90;4.40;;;9.20;86.20;;;;;;5100991;27;20036;-73
2022/12/22 13:08:55;;;;;;;14.13;4.60;;;9.30;86.20;;;;;;5118142;27;20382;-74
2022/12/22 13:11:34;;;;;;;8.52;3.90;;;9.30;86.10;;;;;;5117765;27;20039;-72
2022/12/22 13:14:00;;;;;;;10.68;3.60;;;9.30;86.00;;;;;;5117783;27;20043;-72
2022/12/22 13:16:32;;;;;;;14.10;3.47;;;9.30;85.90;;;;;;5117644;27;20047;-73
2022/12/22 13:19:01;;;;;;;8.60;3.58;;;9.30;85.80;;;;;;5117886;27;20045;-73
2022/12/22 13:21:36;;;;;;;12.25;3.58;;;9.30;85.70;;;;;;5101115;27;20373;-73
2022/12/22 13:24:12;;;;;;;;;;;9.30;85.60;;;;;;5117695;27;20127;-73
2022/12/22 13:26:40;;;;;;;9.00;2.92;;;9.30;85.20;;;;;;5116697;27;19950;-73
2022/12/22 13:29:08;;;;;;;11.60;3.10;;;9.30;85.60;;;;;;5097025;27;20031;-73
2022/12/22 13:31:44;;;;;;;9.18;3.05;;;9.30;85.50;;;;;;5100024;27;20047;-73
2022/12/22 13:34:30;;;;;;;9.88;3.10;;;9.40;85.40;;;;;;5123432;27;20062;-72
2022/12/22 13:37:01;;;;;;;13.10;3.25;;;9.40;85.30;;;;;;5115367;27;20498;-73
2022/12/22 13:39:27;;;;;;;11.15;3.13;;;9.40;85.20;;;;;;5114273;27;20045;-73
2022/12/22 13:41:54;;;;;;;9.13;3.00;;;9.40;85.00;;;;;;5116573;27;20486;-72
2022/12/22 13:44:30;;;;;;;11.95;2.95;;;9.40;84.90;;;;;;5116691;27;20099;-73
2022/12/22 13:47:05;;;;;;;11.52;3.78;;;9.40;84.90;;;;;;5115360;27;20056;-73
2022/12/22 13:49:33;;;;;;;10.82;3.30;;;9.40;84.80;;;;;;5114504;27;20109;-73
2022/12/22 13:52:00;;;;;;;9.45;3.10;;;9.40;84.70;;;;;;5116516;27;20498;-73
2022/12/22 13:54:31;;;;;;;7.20;3.40;;;9.40;84.70;;;;;;5099755;27;20043;-73
2022/12/22 13:56:59;;;;;;;8.55;2.83;;;9.40;84.60;;;;;;5115950;27;20171;-73
2022/12/22 13:59:29;;;;;;;11.25;3.08;;;9.40;84.60;;;;;;5119585;27;20423;-73
2022/12/22 14:02:12;;;;;;;10.43;3.72;;;9.40;84.50;;;;;;5124475;27;20052;-73
2022/12/22 14:04:41;;;;;;;10.60;3.75;;;9.40;84.50;;;;;;5098939;27;20080;-72
2022/12/22 14:07:18;;;;;;;7.75;3.33;;;9.40;84.50;;;;;;5118326;27;20047;-73
2022/12/22 14:09:49;;;;;;;6.75;2.42;;;9.40;84.40;;;;;;5121901;27;20468;-73
2022/12/22 14:12:20;;;;;;;8.18;3.20;;;9.40;84.40;;;;;;5109608;27;20069;-73
2022/12/22 14:14:49;;;;;;;13.35;4.20;;;9.40;84.30;;;;;;5105746;27;20045;-73
2022/12/22 14:17:32;;;;;;;9.88;3.42;;;9.40;84.30;;;;;;5105907;27;20031;-72
2022/12/22 14:20:00;;;;;;;7.95;3.03;;;9.50;84.30;;;;;;5122630;27;20057;-73
2022/12/22 14:22:44;;;;;;;11.57;3.45;;;9.50;84.30;;;;;;5111114;27;20129;-73
2022/12/22 14:25:20;;;;;;;9.60;2.75;;;9.50;84.20;;;;;;5117163;27;20035;-73
2022/12/22 14:27:52;;;;;;;7.05;3.03;;;9.40;84.10;;;;;;5139625;27;20050;-73
2022/12/22 14:30:24;;;;;;;7.72;2.53;;;9.50;84.10;;;;;;5120060;27;20038;-73
2022/12/22 14:32:56;;;;;;;7.80;3.03;;;9.50;84.10;;;;;;5122684;27;20059;-73
2022/12/22 14:35:22;;;;;;;8.10;3.08;;;9.40;83.90;;;;;;5119530;27;20054;-73
2022/12/22 14:38:06;;;;;;;8.90;3.00;;;9.50;83.80;;;;;;5121774;27;20034;-72
2022/12/22 14:40:38;;;;;;;9.80;3.50;;;9.50;83.80;;;;;;5105220;27;20043;-72
2022/12/22 14:43:24;;;;;;;6.50;3.30;;;9.40;83.70;;;;;;5118988;27;20074;-72
2022/12/22 14:45:59;;;;;;;6.45;2.75;;;9.40;83.50;;;;;;5120824;27;20378;-72
2022/12/22 14:48:27;;;;;;;;;;;9.40;83.60;;;;;;5123650;27;20043;-73
2022/12/22 14:50:54;;;;;;;8.73;3.00;;;9.40;83.40;;;;;;5118773;27;19964;-72
2022/12/22 14:53:46;;;;;;;9.60;3.72;;;9.40;83.80;;;;;;5121713;27;20451;-73
2022/12/22 14:56:13;;;;;;;9.80;3.25;;;9.40;83.60;;;;;;5111886;27;20423;-73
2022/12/22 14:58:41;;;;;;;10.00;3.63;;;9.40;83.70;;;;;;5121277;27;20034;-73
2022/12/22 15:01:27;;;;;;;6.63;3.30;;;9.30;83.60;;;;;;5121843;27;20070;-73
2022/12/22 15:03:58;;;;;;;8.00;3.55;;;9.40;83.70;;;;;;5120467;27;20066;-68
2022/12/22 15:06:36;;;;;;;8.48;3.95;;;9.40;83.80;;;;;;5102820;27;20030;-67
2022/12/22 15:09:05;;;;;;;5.88;3.13;;;9.40;83.80;;;;;;5124046;27;20043;-68
2022/12/22 15:11:32;;;;;;;7.50;3.22;;;9.40;83.80;;;;;;5113480;27;20490;-67
2022/12/22 15:13:57;;;;;;;10.38;3.70;;;9.40;83.80;;;;;;5123719;27;20143;-68
2022/12/22 15:16:24;;;;;;;12.05;4.43;;;9.30;83.70;;;;;;5122722;27;20043;-68
2022/12/22 15:18:50;;;;;;;7.78;3.83;;;9.40;83.70;;;;;;5121702;27;20095;-68
2022/12/22 15:21:18;;;;;;;11.88;4.85;;;9.30;83.70;;;;;;5121908;27;20551;-67
2022/12/22 15:23:44;;;;;;;9.60;4.05;;;9.40;83.70;;;;;;5121293;27;20112;-67
2022/12/22 15:26:10;;;;;;;7.75;3.70;;;9.40;83.60;;;;;;5123682;27;20039;-67
2022/12/22 15:28:36;;;;;;;7.57;4.15;;;9.30;83.50;;;;;;5120750;27;20424;-68
2022/12/22 15:31:05;;;;;;;9.05;3.92;;;9.30;83.50;;;;;;5121858;27;20067;-67
2022/12/22 15:33:31;;;;;;;10.88;4.85;;;9.30;83.50;;;;;;5122074;27;20154;-68
2022/12/22 15:35:57;;;;;;;9.75;4.60;;;9.30;83.40;;;;;;5123294;27;20046;-68
2022/12/22 15:38:24;;;;;;;11.93;4.88;;;9.30;83.40;;;;;;5124088;27;20046;-68
2022/12/22 15:40:51;;;;;;;8.23;4.97;;;9.30;83.40;;;;;;5105221;27;20074;-67
2022/12/22 15:43:17;;;;;;;9.10;5.65;;;9.30;83.40;;;;;;5102680;27;20039;-67
2022/12/22 15:45:44;;;;;;;9.77;5.55;;;9.20;83.40;;;;;;5121449;27;20433;-67
2022/12/22 15:48:19;;;;;;;8.90;6.35;;;9.20;83.40;;;;;;5124290;27;20537;-68
2022/12/22 15:50:45;;;;;;;15.50;7.65;;;9.20;83.40;;;;;;5124690;27;20067;-67
2022/12/22 15:53:15;;;;;;;13.85;9.02;;;9.20;83.40;;;;;;5122450;27;20085;-68
2022/12/22 15:55:43;;;;;;;11.48;8.27;;;9.20;83.30;;;;;;5125281;27;20035;-67
2022/12/22 15:58:15;;;;;;;15.02;10.30;;;9.20;83.30;;;;;;5126687;27;20046;-67
2022/12/22 16:00:41;;;;;;;19.33;10.95;;;9.20;83.30;;;;;;5106328;27;20092;-67
2022/12/22 16:03:10;;;;;;;12.95;10.40;;;9.20;83.30;;;;;;5144008;27;20715;-67
2022/12/22 16:05:36;;;;;;;17.02;11.25;;;9.20;83.20;;;;;;5107999;27;20027;-67
2022/12/22 16:08:03;;;;;;;14.80;9.57;;;9.10;83.00;;;;;;5124349;27;20087;-68
2022/12/22 16:10:32;;;;;;;14.80;11.68;;;9.10;82.90;;;;;;5124113;27;20434;-67
2022/12/22 16:13:01;;;;;;;16.42;10.95;;;9.10;82.80;;;;;;5122780;27;20039;-68
2022/12/22 16:15:30;;;;;;;12.05;9.38;;;9.10;82.70;;;;;;5121683;27;20050;-67
2022/12/22 16:17:58;;;;;;;13.93;10.98;;;9.00;82.50;;;;;;5125226;27;20043;-67
2022/12/22 16:20:25;;;;;;;16.33;11.32;;;9.00;82.50;;;;;;5129576;27;20074;-67
2022/12/22 16:22:52;;;;;;;15.35;11.68;;;9.00;82.50;;;;;;5123665;27;20050;-68
2022/12/22 16:25:22;;;;;;;15.82;11.57;;;9.00;82.50;;;;;;5124073;27;20732;-68
2022/12/22 16:27:49;;;;;;;17.20;12.73;;;9.00;82.40;;;;;;5128489;27;20039;-68
2022/12/22 16:30:21;;;;;;;15.63;11.38;;;8.90;82.30;;;;;;5126055;27;20047;-68
2022/12/22 16:32:47;;;;;;;18.20;12.57;;;8.90;82.30;;;;;;5126517;27;20549;-68
2022/12/22 16:35:18;;;;;;;21.00;14.60;;;8.90;82.30;;;;;;5124943;27;20130;-69
2022/12/22 16:37:45;;;;;;;20.52;15.07;;;8.90;82.30;;;;;;5129075;27;20080;-68
2022/12/22 16:40:11;;;;;;;17.75;13.35;;;8.90;82.30;;;;;;5128859;27;20030;-68